sensor_id;sensor_type;location;lat;lon;timestamp;temperature;humidity
26186;DHT22;20067;48.764;9.176;2023-01-01T00:01:41;14.70;85.70
26186;DHT22;20067;48.764;9.176;2023-01-01T00:04:11;14.60;86.10
26186;DHT22;20067;48.764;9.176;2023-01-01T00:06:37;14.60;85.90
26186;DHT22;20067;48.764;9.176;2023-01-01T00:09:03;14.60;86.50
26186;DHT22;20067;48.764;9.176;2023-01-01T00:11:47;14.60;86.00
26186;DHT22;20067;48.764;9.176;2023-01-01T00:14:13;14.50;86.30
26186;DHT22;20067;48.764;9.176;2023-01-01T00:16:39;14.50;86.30
26186;DHT22;20067;48.764;9.176;2023-01-01T00:19:05;14.50;86.20
26186;DHT22;20067;48.764;9.176;2023-01-01T00:21:30;14.60;85.80
26186;DHT22;20067;48.764;9.176;2023-01-01T00:23:56;14.60;85.70
26186;DHT22;20067;48.764;9.176;2023-01-01T00:26:22;14.80;85.30
26186;DHT22;20067;48.764;9.176;2023-01-01T00:28:47;14.80;85.30
26186;DHT22;20067;48.764;9.176;2023-01-01T00:31:15;14.80;85.40
26186;DHT22;20067;48.764;9.176;2023-01-01T00:33:42;14.80;85.10
26186;DHT22;20067;48.764;9.176;2023-01-01T00:36:10;15.00;84.30
26186;DHT22;20067;48.764;9.176;2023-01-01T00:38:37;15.00;84.30
26186;DHT22;20067;48.764;9.176;2023-01-01T00:41:03;15.00;84.10
26186;DHT22;20067;48.764;9.176;2023-01-01T00:43:29;15.00;84.00
26186;DHT22;20067;48.764;9.176;2023-01-01T00:45:55;15.00;84.30
26186;DHT22;20067;48.764;9.176;2023-01-01T00:48:22;15.10;83.80
26186;DHT22;20067;48.764;9.176;2023-01-01T00:50:48;15.20;83.50
26186;DHT22;20067;48.764;9.176;2023-01-01T00:53:14;15.20;83.50
26186;DHT22;20067;48.764;9.176;2023-01-01T00:55:41;15.20;83.60
26186;DHT22;20067;48.764;9.176;2023-01-01T00:58:07;15.20;83.40
26186;DHT22;20067;48.764;9.176;2023-01-01T01:00:33;15.00;83.90
26186;DHT22;20067;48.764;9.176;2023-01-01T01:02:59;15.00;84.30
26186;DHT22;20067;48.764;9.176;2023-01-01T01:05:25;14.80;84.70
26186;DHT22;20067;48.764;9.176;2023-01-01T01:07:51;14.80;84.80
26186;DHT22;20067;48.764;9.176;2023-01-01T01:10:16;14.70;85.10
26186;DHT22;20067;48.764;9.176;2023-01-01T01:12:43;14.60;85.70
26186;DHT22;20067;48.764;9.176;2023-01-01T01:15:09;14.50;86.10
26186;DHT22;20067;48.764;9.176;2023-01-01T01:17:35;14.40;86.40
26186;DHT22;20067;48.764;9.176;2023-01-01T01:20:01;14.40;86.10
26186;DHT22;20067;48.764;9.176;2023-01-01T01:22:28;14.40;86.30
26186;DHT22;20067;48.764;9.176;2023-01-01T01:24:53;14.30;86.50
26186;DHT22;20067;48.764;9.176;2023-01-01T01:27:19;14.30;86.50
26186;DHT22;20067;48.764;9.176;2023-01-01T01:29:44;14.30;86.40
26186;DHT22;20067;48.764;9.176;2023-01-01T01:32:11;14.30;86.40
26186;DHT22;20067;48.764;9.176;2023-01-01T01:34:37;14.30;86.70
26186;DHT22;20067;48.764;9.176;2023-01-01T01:37:03;14.20;86.90
26186;DHT22;20067;48.764;9.176;2023-01-01T01:39:28;14.20;87.00
26186;DHT22;20067;48.764;9.176;2023-01-01T01:41:54;14.10;87.00
26186;DHT22;20067;48.764;9.176;2023-01-01T01:49:45;13.90;88.00
26186;DHT22;20067;48.764;9.176;2023-01-01T01:52:11;13.90;88.00
26186;DHT22;20067;48.764;9.176;2023-01-01T01:54:37;13.80;88.40
26186;DHT22;20067;48.764;9.176;2023-01-01T01:57:06;13.70;88.70
26186;DHT22;20067;48.764;9.176;2023-01-01T01:59:35;13.70;88.80
26186;DHT22;20067;48.764;9.176;2023-01-01T02:02:01;13.60;88.80
26186;DHT22;20067;48.764;9.176;2023-01-01T02:04:27;13.60;88.80
26186;DHT22;20067;48.764;9.176;2023-01-01T02:06:54;13.60;88.90
26186;DHT22;20067;48.764;9.176;2023-01-01T02:09:20;13.50;89.20
26186;DHT22;20067;48.764;9.176;2023-01-01T02:11:45;13.50;89.10
26186;DHT22;20067;48.764;9.176;2023-01-01T02:14:11;13.50;89.00
26186;DHT22;20067;48.764;9.176;2023-01-01T02:17:36;13.50;89.00
26186;DHT22;20067;48.764;9.176;2023-01-01T02:22:14;13.80;87.80
26186;DHT22;20067;48.764;9.176;2023-01-01T02:24:58;14.20;86.40
26186;DHT22;20067;48.764;9.176;2023-01-01T02:27:43;14.40;85.70
26186;DHT22;20067;48.764;9.176;2023-01-01T02:30:13;14.50;85.30
26186;DHT22;20067;48.764;9.176;2023-01-01T02:32:57;14.50;85.10
26186;DHT22;20067;48.764;9.176;2023-01-01T02:35:40;14.60;84.80
26186;DHT22;20067;48.764;9.176;2023-01-01T02:38:12;14.70;84.50
26186;DHT22;20067;48.764;9.176;2023-01-01T02:40:44;14.80;84.30
26186;DHT22;20067;48.764;9.176;2023-01-01T02:43:11;14.80;84.30
26186;DHT22;20067;48.764;9.176;2023-01-01T02:45:36;14.70;84.30
26186;DHT22;20067;48.764;9.176;2023-01-01T02:48:34;14.70;84.60
26186;DHT22;20067;48.764;9.176;2023-01-01T02:50:53;14.60;84.70
26186;DHT22;20067;48.764;9.176;2023-01-01T02:53:28;14.60;84.60
26186;DHT22;20067;48.764;9.176;2023-01-01T02:56:07;14.60;84.60
26186;DHT22;20067;48.764;9.176;2023-01-01T02:58:40;14.60;84.60
26186;DHT22;20067;48.764;9.176;2023-01-01T03:01:52;14.60;84.50
26186;DHT22;20067;48.764;9.176;2023-01-01T03:07:25;14.60;84.40
26186;DHT22;20067;48.764;9.176;2023-01-01T03:10:06;14.50;84.70
26186;DHT22;20067;48.764;9.176;2023-01-01T03:12:45;14.60;84.40
26186;DHT22;20067;48.764;9.176;2023-01-01T03:21:39;14.60;84.40
26186;DHT22;20067;48.764;9.176;2023-01-01T03:24:06;14.50;84.60
26186;DHT22;20067;48.764;9.176;2023-01-01T03:26:35;14.60;84.50
26186;DHT22;20067;48.764;9.176;2023-01-01T03:29:02;14.40;84.80
26186;DHT22;20067;48.764;9.176;2023-01-01T03:31:30;14.40;84.90
26186;DHT22;20067;48.764;9.176;2023-01-01T03:34:04;14.30;85.40
26186;DHT22;20067;48.764;9.176;2023-01-01T03:36:37;14.20;85.80
26186;DHT22;20067;48.764;9.176;2023-01-01T03:39:28;14.10;86.20
26186;DHT22;20067;48.764;9.176;2023-01-01T03:45:13;14.00;86.30
26186;DHT22;20067;48.764;9.176;2023-01-01T03:47:41;14.00;86.30
26186;DHT22;20067;48.764;9.176;2023-01-01T03:50:07;13.90;86.70
26186;DHT22;20067;48.764;9.176;2023-01-01T03:55:44;13.90;87.10
26186;DHT22;20067;48.764;9.176;2023-01-01T03:58:37;13.90;86.80
26186;DHT22;20067;48.764;9.176;2023-01-01T04:01:17;14.00;86.50
26186;DHT22;20067;48.764;9.176;2023-01-01T04:03:44;13.90;86.80
26186;DHT22;20067;48.764;9.176;2023-01-01T04:06:11;13.90;86.80
26186;DHT22;20067;48.764;9.176;2023-01-01T04:08:37;13.90;87.00
26186;DHT22;20067;48.764;9.176;2023-01-01T04:11:08;13.90;86.80
26186;DHT22;20067;48.764;9.176;2023-01-01T04:13:53;13.80;87.10
26186;DHT22;20067;48.764;9.176;2023-01-01T04:16:19;14.00;86.60
26186;DHT22;20067;48.764;9.176;2023-01-01T04:18:44;14.10;86.30
26186;DHT22;20067;48.764;9.176;2023-01-01T04:21:11;14.10;86.10
26186;DHT22;20067;48.764;9.176;2023-01-01T04:23:37;14.20;85.80
26186;DHT22;20067;48.764;9.176;2023-01-01T04:26:05;14.30;85.60
26186;DHT22;20067;48.764;9.176;2023-01-01T04:28:35;14.40;85.30
26186;DHT22;20067;48.764;9.176;2023-01-01T04:31:01;14.40;85.10
26186;DHT22;20067;48.764;9.176;2023-01-01T04:33:27;14.40;84.80
26186;DHT22;20067;48.764;9.176;2023-01-01T04:35:53;14.60;84.40
26186;DHT22;20067;48.764;9.176;2023-01-01T04:38:18;14.60;84.20
26186;DHT22;20067;48.764;9.176;2023-01-01T04:40:44;14.70;83.90
26186;DHT22;20067;48.764;9.176;2023-01-01T04:43:09;14.70;83.80
26186;DHT22;20067;48.764;9.176;2023-01-01T04:45:35;14.70;83.80
26186;DHT22;20067;48.764;9.176;2023-01-01T04:48:04;14.70;83.70
26186;DHT22;20067;48.764;9.176;2023-01-01T04:50:30;14.80;83.50
26186;DHT22;20067;48.764;9.176;2023-01-01T04:52:57;14.80;83.40
26186;DHT22;20067;48.764;9.176;2023-01-01T04:55:23;14.80;83.40
26186;DHT22;20067;48.764;9.176;2023-01-01T04:57:48;14.80;83.40
26186;DHT22;20067;48.764;9.176;2023-01-01T05:00:14;14.80;83.40
26186;DHT22;20067;48.764;9.176;2023-01-01T05:02:40;14.80;83.30
26186;DHT22;20067;48.764;9.176;2023-01-01T05:05:06;14.90;83.10
26186;DHT22;20067;48.764;9.176;2023-01-01T05:07:32;14.90;83.20
26186;DHT22;20067;48.764;9.176;2023-01-01T05:09:58;14.80;83.30
26186;DHT22;20067;48.764;9.176;2023-01-01T05:12:23;14.80;83.50
26186;DHT22;20067;48.764;9.176;2023-01-01T05:14:49;14.70;83.70
26186;DHT22;20067;48.764;9.176;2023-01-01T05:17:15;14.60;83.80
26186;DHT22;20067;48.764;9.176;2023-01-01T05:19:40;14.60;84.00
26186;DHT22;20067;48.764;9.176;2023-01-01T05:22:06;14.50;84.30
26186;DHT22;20067;48.764;9.176;2023-01-01T05:24:32;14.50;84.20
26186;DHT22;20067;48.764;9.176;2023-01-01T05:27:00;14.50;84.20
26186;DHT22;20067;48.764;9.176;2023-01-01T05:29:26;14.50;84.30
26186;DHT22;20067;48.764;9.176;2023-01-01T05:31:51;14.50;84.40
26186;DHT22;20067;48.764;9.176;2023-01-01T05:34:17;14.40;84.50
26186;DHT22;20067;48.764;9.176;2023-01-01T05:36:43;14.40;84.50
26186;DHT22;20067;48.764;9.176;2023-01-01T05:39:10;14.40;84.50
26186;DHT22;20067;48.764;9.176;2023-01-01T05:41:37;14.40;84.50
26186;DHT22;20067;48.764;9.176;2023-01-01T05:44:05;14.40;84.40
26186;DHT22;20067;48.764;9.176;2023-01-01T05:46:33;14.40;84.40
26186;DHT22;20067;48.764;9.176;2023-01-01T05:48:59;14.40;84.30
26186;DHT22;20067;48.764;9.176;2023-01-01T05:51:26;14.40;84.30
26186;DHT22;20067;48.764;9.176;2023-01-01T05:53:53;14.40;84.20
26186;DHT22;20067;48.764;9.176;2023-01-01T05:56:18;14.40;84.10
26186;DHT22;20067;48.764;9.176;2023-01-01T05:58:45;14.40;84.10
26186;DHT22;20067;48.764;9.176;2023-01-01T06:03:47;14.40;84.10
26186;DHT22;20067;48.764;9.176;2023-01-01T06:06:15;14.40;84.20
26186;DHT22;20067;48.764;9.176;2023-01-01T06:08:41;14.30;84.30
26186;DHT22;20067;48.764;9.176;2023-01-01T06:11:10;14.30;84.40
26186;DHT22;20067;48.764;9.176;2023-01-01T06:13:36;14.30;84.40
26186;DHT22;20067;48.764;9.176;2023-01-01T06:16:02;14.30;84.40
26186;DHT22;20067;48.764;9.176;2023-01-01T06:18:30;14.20;84.60
26186;DHT22;20067;48.764;9.176;2023-01-01T06:21:21;14.10;85.10
26186;DHT22;20067;48.764;9.176;2023-01-01T06:23:47;14.00;85.30
26186;DHT22;20067;48.764;9.176;2023-01-01T06:26:22;14.00;85.40
26186;DHT22;20067;48.764;9.176;2023-01-01T06:28:48;13.90;85.90
26186;DHT22;20067;48.764;9.176;2023-01-01T06:31:17;13.80;86.10
26186;DHT22;20067;48.764;9.176;2023-01-01T06:33:44;13.70;86.30
26186;DHT22;20067;48.764;9.176;2023-01-01T06:36:12;13.70;86.70
26186;DHT22;20067;48.764;9.176;2023-01-01T06:38:40;13.60;87.00
26186;DHT22;20067;48.764;9.176;2023-01-01T06:41:12;13.50;87.10
26186;DHT22;20067;48.764;9.176;2023-01-01T06:43:38;13.40;87.60
26186;DHT22;20067;48.764;9.176;2023-01-01T06:48:35;13.20;88.20
26186;DHT22;20067;48.764;9.176;2023-01-01T06:51:21;13.20;88.40
26186;DHT22;20067;48.764;9.176;2023-01-01T06:53:48;13.10;88.70
26186;DHT22;20067;48.764;9.176;2023-01-01T06:56:14;13.00;88.80
26186;DHT22;20067;48.764;9.176;2023-01-01T06:58:40;13.00;89.10
26186;DHT22;20067;48.764;9.176;2023-01-01T07:01:15;12.90;89.20
26186;DHT22;20067;48.764;9.176;2023-01-01T07:03:42;12.90;89.20
26186;DHT22;20067;48.764;9.176;2023-01-01T07:06:08;12.80;89.30
26186;DHT22;20067;48.764;9.176;2023-01-01T07:08:34;12.80;89.10
26186;DHT22;20067;48.764;9.176;2023-01-01T07:11:00;12.80;89.30
26186;DHT22;20067;48.764;9.176;2023-01-01T07:13:27;12.80;89.00
26186;DHT22;20067;48.764;9.176;2023-01-01T07:15:54;12.90;88.60
26186;DHT22;20067;48.764;9.176;2023-01-01T07:18:21;12.90;88.50
26186;DHT22;20067;48.764;9.176;2023-01-01T07:20:52;13.00;88.20
26186;DHT22;20067;48.764;9.176;2023-01-01T07:23:18;13.00;88.10
26186;DHT22;20067;48.764;9.176;2023-01-01T07:25:44;13.00;88.30
26186;DHT22;20067;48.764;9.176;2023-01-01T07:28:10;13.00;88.40
26186;DHT22;20067;48.764;9.176;2023-01-01T07:30:37;13.00;88.20
26186;DHT22;20067;48.764;9.176;2023-01-01T07:33:03;13.00;88.40
26186;DHT22;20067;48.764;9.176;2023-01-01T07:35:28;12.90;88.50
26186;DHT22;20067;48.764;9.176;2023-01-01T07:37:54;12.90;88.70
26186;DHT22;20067;48.764;9.176;2023-01-01T07:40:19;12.90;88.60
26186;DHT22;20067;48.764;9.176;2023-01-01T07:42:45;13.00;88.50
26186;DHT22;20067;48.764;9.176;2023-01-01T07:45:13;13.00;88.50
26186;DHT22;20067;48.764;9.176;2023-01-01T07:47:39;13.00;88.40
26186;DHT22;20067;48.764;9.176;2023-01-01T07:50:05;12.90;88.50
26186;DHT22;20067;48.764;9.176;2023-01-01T07:52:31;12.90;88.70
26186;DHT22;20067;48.764;9.176;2023-01-01T07:54:56;12.90;88.60
26186;DHT22;20067;48.764;9.176;2023-01-01T07:57:22;12.90;88.70
26186;DHT22;20067;48.764;9.176;2023-01-01T07:59:47;12.80;88.90
26186;DHT22;20067;48.764;9.176;2023-01-01T08:02:13;12.90;88.80
26186;DHT22;20067;48.764;9.176;2023-01-01T08:04:38;12.80;88.80
26186;DHT22;20067;48.764;9.176;2023-01-01T08:07:04;12.80;88.80
26186;DHT22;20067;48.764;9.176;2023-01-01T08:09:30;12.80;89.00
26186;DHT22;20067;48.764;9.176;2023-01-01T08:11:56;12.80;88.80
26186;DHT22;20067;48.764;9.176;2023-01-01T08:14:23;12.80;89.00
26186;DHT22;20067;48.764;9.176;2023-01-01T08:16:50;12.80;89.00
26186;DHT22;20067;48.764;9.176;2023-01-01T08:19:15;12.70;89.20
26186;DHT22;20067;48.764;9.176;2023-01-01T08:21:41;12.80;89.30
26186;DHT22;20067;48.764;9.176;2023-01-01T08:24:07;12.90;88.90
26186;DHT22;20067;48.764;9.176;2023-01-01T08:26:35;12.90;88.90
26186;DHT22;20067;48.764;9.176;2023-01-01T08:29:03;13.00;89.00
26186;DHT22;20067;48.764;9.176;2023-01-01T08:31:28;13.00;88.90
26186;DHT22;20067;48.764;9.176;2023-01-01T08:33:54;13.10;88.70
26186;DHT22;20067;48.764;9.176;2023-01-01T08:36:19;13.10;88.70
26186;DHT22;20067;48.764;9.176;2023-01-01T08:38:45;13.00;88.80
26186;DHT22;20067;48.764;9.176;2023-01-01T08:41:11;12.80;89.40
26186;DHT22;20067;48.764;9.176;2023-01-01T08:43:37;12.90;89.70
26186;DHT22;20067;48.764;9.176;2023-01-01T08:46:03;12.80;89.60
26186;DHT22;20067;48.764;9.176;2023-01-01T08:48:29;12.90;89.60
26186;DHT22;20067;48.764;9.176;2023-01-01T08:50:59;12.90;89.60
26186;DHT22;20067;48.764;9.176;2023-01-01T08:53:29;13.00;89.30
26186;DHT22;20067;48.764;9.176;2023-01-01T08:56:03;13.00;89.10
26186;DHT22;20067;48.764;9.176;2023-01-01T08:58:30;13.10;89.00
26186;DHT22;20067;48.764;9.176;2023-01-01T09:00:56;13.10;88.80
26186;DHT22;20067;48.764;9.176;2023-01-01T09:03:24;13.10;88.60
26186;DHT22;20067;48.764;9.176;2023-01-01T09:05:50;13.10;88.50
26186;DHT22;20067;48.764;9.176;2023-01-01T09:08:17;13.20;88.10
26186;DHT22;20067;48.764;9.176;2023-01-01T09:10:43;13.30;88.50
26186;DHT22;20067;48.764;9.176;2023-01-01T09:13:10;13.40;87.70
26186;DHT22;20067;48.764;9.176;2023-01-01T09:15:36;13.70;87.50
26186;DHT22;20067;48.764;9.176;2023-01-01T09:18:01;13.90;86.70
26186;DHT22;20067;48.764;9.176;2023-01-01T09:20:27;14.20;86.00
26186;DHT22;20067;48.764;9.176;2023-01-01T09:22:53;14.30;85.10
26186;DHT22;20067;48.764;9.176;2023-01-01T09:25:18;14.40;85.10
26186;DHT22;20067;48.764;9.176;2023-01-01T09:27:44;14.60;84.60
26186;DHT22;20067;48.764;9.176;2023-01-01T09:30:10;14.60;84.10
26186;DHT22;20067;48.764;9.176;2023-01-01T09:32:36;14.60;83.80
26186;DHT22;20067;48.764;9.176;2023-01-01T09:35:02;14.50;83.70
26186;DHT22;20067;48.764;9.176;2023-01-01T09:37:28;14.60;84.00
26186;DHT22;20067;48.764;9.176;2023-01-01T09:39:53;14.70;83.20
26186;DHT22;20067;48.764;9.176;2023-01-01T09:50:05;15.30;82.60
26186;DHT22;20067;48.764;9.176;2023-01-01T09:55:21;15.90;81.00
26186;DHT22;20067;48.764;9.176;2023-01-01T09:57:49;16.70;79.10
26186;DHT22;20067;48.764;9.176;2023-01-01T10:00:16;17.00;78.10
26186;DHT22;20067;48.764;9.176;2023-01-01T10:11:00;18.80;73.00
26186;DHT22;20067;48.764;9.176;2023-01-01T10:13:37;19.20;70.60
26186;DHT22;20067;48.764;9.176;2023-01-01T10:16:12;19.20;69.80
26186;DHT22;20067;48.764;9.176;2023-01-01T10:18:40;19.40;70.50
26186;DHT22;20067;48.764;9.176;2023-01-01T10:21:11;19.70;69.10
26186;DHT22;20067;48.764;9.176;2023-01-01T10:23:43;20.20;68.90
26186;DHT22;20067;48.764;9.176;2023-01-01T10:26:20;20.50;67.70
26186;DHT22;20067;48.764;9.176;2023-01-01T10:28:53;20.50;66.80
26186;DHT22;20067;48.764;9.176;2023-01-01T10:31:30;20.80;66.40
26186;DHT22;20067;48.764;9.176;2023-01-01T10:33:57;20.90;65.20
26186;DHT22;20067;48.764;9.176;2023-01-01T10:36:23;20.10;66.20
26186;DHT22;20067;48.764;9.176;2023-01-01T10:38:50;19.60;67.70
26186;DHT22;20067;48.764;9.176;2023-01-01T10:41:16;19.50;68.00
26186;DHT22;20067;48.764;9.176;2023-01-01T10:43:43;18.70;69.40
26186;DHT22;20067;48.764;9.176;2023-01-01T10:46:15;18.60;70.50
26186;DHT22;20067;48.764;9.176;2023-01-01T10:49:06;19.20;69.50
26186;DHT22;20067;48.764;9.176;2023-01-01T10:51:32;19.00;68.50
26186;DHT22;20067;48.764;9.176;2023-01-01T10:54:00;19.00;69.10
26186;DHT22;20067;48.764;9.176;2023-01-01T10:56:38;19.50;68.00
26186;DHT22;20067;48.764;9.176;2023-01-01T10:59:07;19.20;67.80
26186;DHT22;20067;48.764;9.176;2023-01-01T11:02:22;19.10;69.00
26186;DHT22;20067;48.764;9.176;2023-01-01T11:04:50;19.40;68.30
26186;DHT22;20067;48.764;9.176;2023-01-01T11:07:21;19.40;68.10
26186;DHT22;20067;48.764;9.176;2023-01-01T11:09:49;19.40;67.90
26186;DHT22;20067;48.764;9.176;2023-01-01T11:12:22;19.50;67.90
26186;DHT22;20067;48.764;9.176;2023-01-01T11:14:53;19.80;67.10
26186;DHT22;20067;48.764;9.176;2023-01-01T11:17:25;19.60;67.60
26186;DHT22;20067;48.764;9.176;2023-01-01T11:19:52;20.00;66.80
26186;DHT22;20067;48.764;9.176;2023-01-01T11:27:47;20.50;65.00
26186;DHT22;20067;48.764;9.176;2023-01-01T11:30:19;20.30;65.80
26186;DHT22;20067;48.764;9.176;2023-01-01T11:32:46;20.10;65.80
26186;DHT22;20067;48.764;9.176;2023-01-01T11:35:23;19.20;67.70
26186;DHT22;20067;48.764;9.176;2023-01-01T11:37:51;18.50;69.10
26186;DHT22;20067;48.764;9.176;2023-01-01T11:40:24;18.00;70.30
26186;DHT22;20067;48.764;9.176;2023-01-01T11:42:56;17.90;71.00
26186;DHT22;20067;48.764;9.176;2023-01-01T11:45:28;17.90;71.10
26186;DHT22;20067;48.764;9.176;2023-01-01T11:48:42;17.80;71.10
26186;DHT22;20067;48.764;9.176;2023-01-01T11:51:05;17.80;71.10
26186;DHT22;20067;48.764;9.176;2023-01-01T11:53:36;17.60;71.30
26186;DHT22;20067;48.764;9.176;2023-01-01T11:58:50;17.70;71.10
26186;DHT22;20067;48.764;9.176;2023-01-01T12:01:31;17.70;71.10
26186;DHT22;20067;48.764;9.176;2023-01-01T12:06:40;17.70;71.30
26186;DHT22;20067;48.764;9.176;2023-01-01T12:09:23;17.70;71.10
26186;DHT22;20067;48.764;9.176;2023-01-01T12:11:54;17.90;70.70
26186;DHT22;20067;48.764;9.176;2023-01-01T12:14:39;17.90;70.40
26186;DHT22;20067;48.764;9.176;2023-01-01T12:17:27;17.90;70.20
26186;DHT22;20067;48.764;9.176;2023-01-01T12:22:25;18.00;70.20
26186;DHT22;20067;48.764;9.176;2023-01-01T12:24:51;17.80;70.40
26186;DHT22;20067;48.764;9.176;2023-01-01T12:28:26;17.80;70.70
26186;DHT22;20067;48.764;9.176;2023-01-01T12:37:04;17.90;70.10
26186;DHT22;20067;48.764;9.176;2023-01-01T12:49:13;18.00;69.80
26186;DHT22;20067;48.764;9.176;2023-01-01T13:00:18;17.80;70.20
26186;DHT22;20067;48.764;9.176;2023-01-01T13:03:10;17.90;70.20
26186;DHT22;20067;48.764;9.176;2023-01-01T13:05:47;17.90;70.00
26186;DHT22;20067;48.764;9.176;2023-01-01T13:08:14;17.90;69.90
26186;DHT22;20067;48.764;9.176;2023-01-01T13:10:43;18.00;70.10
26186;DHT22;20067;48.764;9.176;2023-01-01T13:13:11;18.00;69.40
26186;DHT22;20067;48.764;9.176;2023-01-01T13:20:35;18.10;69.60
26186;DHT22;20067;48.764;9.176;2023-01-01T13:23:01;18.10;69.60
26186;DHT22;20067;48.764;9.176;2023-01-01T13:25:28;18.10;69.60
26186;DHT22;20067;48.764;9.176;2023-01-01T13:33:29;18.10;69.90
26186;DHT22;20067;48.764;9.176;2023-01-01T13:38:58;18.20;69.90
26186;DHT22;20067;48.764;9.176;2023-01-01T13:41:43;18.30;69.00
26186;DHT22;20067;48.764;9.176;2023-01-01T13:44:18;18.30;69.00
26186;DHT22;20067;48.764;9.176;2023-01-01T13:47:28;18.30;68.50
26186;DHT22;20067;48.764;9.176;2023-01-01T13:50:09;18.30;69.00
26186;DHT22;20067;48.764;9.176;2023-01-01T14:03:26;18.10;69.30
26186;DHT22;20067;48.764;9.176;2023-01-01T14:06:07;18.10;69.40
26186;DHT22;20067;48.764;9.176;2023-01-01T14:08:36;18.10;69.40
26186;DHT22;20067;48.764;9.176;2023-01-01T14:11:19;18.10;69.70
26186;DHT22;20067;48.764;9.176;2023-01-01T14:13:46;18.20;69.40
26186;DHT22;20067;48.764;9.176;2023-01-01T14:16:12;18.10;70.10
26186;DHT22;20067;48.764;9.176;2023-01-01T14:18:55;18.00;70.60
26186;DHT22;20067;48.764;9.176;2023-01-01T14:21:25;18.00;71.80
26186;DHT22;20067;48.764;9.176;2023-01-01T14:24:06;18.00;72.00
26186;DHT22;20067;48.764;9.176;2023-01-01T14:26:36;18.00;72.20
26186;DHT22;20067;48.764;9.176;2023-01-01T14:29:07;17.80;70.50
26186;DHT22;20067;48.764;9.176;2023-01-01T14:31:42;17.80;71.90
26186;DHT22;20067;48.764;9.176;2023-01-01T14:34:29;17.70;71.60
26186;DHT22;20067;48.764;9.176;2023-01-01T14:36:57;17.70;72.90
26186;DHT22;20067;48.764;9.176;2023-01-01T14:39:26;17.50;74.30
26186;DHT22;20067;48.764;9.176;2023-01-01T14:41:53;17.20;75.00
26186;DHT22;20067;48.764;9.176;2023-01-01T14:44:23;17.00;75.80
26186;DHT22;20067;48.764;9.176;2023-01-01T14:46:52;16.90;75.50
26186;DHT22;20067;48.764;9.176;2023-01-01T14:49:28;16.80;76.80
26186;DHT22;20067;48.764;9.176;2023-01-01T14:51:59;16.70;76.90
26186;DHT22;20067;48.764;9.176;2023-01-01T14:54:35;16.60;76.50
26186;DHT22;20067;48.764;9.176;2023-01-01T14:57:01;16.50;77.20
26186;DHT22;20067;48.764;9.176;2023-01-01T14:59:31;16.40;78.00
26186;DHT22;20067;48.764;9.176;2023-01-01T15:04:36;16.20;78.30
26186;DHT22;20067;48.764;9.176;2023-01-01T15:07:02;16.20;78.70
26186;DHT22;20067;48.764;9.176;2023-01-01T15:09:30;16.10;79.30
26186;DHT22;20067;48.764;9.176;2023-01-01T15:11:57;16.00;79.60
26186;DHT22;20067;48.764;9.176;2023-01-01T15:14:35;15.90;79.60
26186;DHT22;20067;48.764;9.176;2023-01-01T15:17:13;15.90;79.90
26186;DHT22;20067;48.764;9.176;2023-01-01T15:19:41;15.70;80.40
26186;DHT22;20067;48.764;9.176;2023-01-01T15:22:30;15.70;79.90
26186;DHT22;20067;48.764;9.176;2023-01-01T15:24:56;15.70;79.90
26186;DHT22;20067;48.764;9.176;2023-01-01T15:27:34;15.60;79.70
26186;DHT22;20067;48.764;9.176;2023-01-01T15:30:03;15.50;80.20
26186;DHT22;20067;48.764;9.176;2023-01-01T15:32:38;15.30;80.70
26186;DHT22;20067;48.764;9.176;2023-01-01T15:37:59;15.00;81.60
26186;DHT22;20067;48.764;9.176;2023-01-01T15:45:21;14.80;82.60
26186;DHT22;20067;48.764;9.176;2023-01-01T15:47:48;14.80;82.90
26186;DHT22;20067;48.764;9.176;2023-01-01T15:52:59;14.70;84.50
26186;DHT22;20067;48.764;9.176;2023-01-01T15:55:28;14.60;85.00
26186;DHT22;20067;48.764;9.176;2023-01-01T15:57:55;14.50;85.40
26186;DHT22;20067;48.764;9.176;2023-01-01T16:00:24;14.50;85.80
26186;DHT22;20067;48.764;9.176;2023-01-01T16:02:53;14.40;86.20
26186;DHT22;20067;48.764;9.176;2023-01-01T16:05:24;14.40;86.10
26186;DHT22;20067;48.764;9.176;2023-01-01T16:07:59;14.40;85.90
26186;DHT22;20067;48.764;9.176;2023-01-01T16:10:26;14.40;86.20
26186;DHT22;20067;48.764;9.176;2023-01-01T16:12:51;14.30;86.00
26186;DHT22;20067;48.764;9.176;2023-01-01T16:15:17;14.30;86.30
26186;DHT22;20067;48.764;9.176;2023-01-01T16:17:43;14.30;86.50
26186;DHT22;20067;48.764;9.176;2023-01-01T16:20:19;14.40;85.40
26186;DHT22;20067;48.764;9.176;2023-01-01T16:22:46;14.40;85.20
26186;DHT22;20067;48.764;9.176;2023-01-01T16:25:16;14.40;85.50
26186;DHT22;20067;48.764;9.176;2023-01-01T16:27:43;14.40;85.10
26186;DHT22;20067;48.764;9.176;2023-01-01T16:30:09;14.50;84.90
26186;DHT22;20067;48.764;9.176;2023-01-01T16:32:35;14.60;84.60
26186;DHT22;20067;48.764;9.176;2023-01-01T16:35:03;14.70;84.10
26186;DHT22;20067;48.764;9.176;2023-01-01T16:37:30;14.80;83.70
26186;DHT22;20067;48.764;9.176;2023-01-01T16:39:56;14.80;83.70
26186;DHT22;20067;48.764;9.176;2023-01-01T16:42:23;15.00;83.00
26186;DHT22;20067;48.764;9.176;2023-01-01T16:44:49;15.00;82.70
26186;DHT22;20067;48.764;9.176;2023-01-01T16:47:15;15.00;82.80
26186;DHT22;20067;48.764;9.176;2023-01-01T16:49:40;15.00;82.80
26186;DHT22;20067;48.764;9.176;2023-01-01T16:52:06;15.00;82.80
26186;DHT22;20067;48.764;9.176;2023-01-01T16:54:32;14.90;82.90
26186;DHT22;20067;48.764;9.176;2023-01-01T16:56:59;14.90;83.00
26186;DHT22;20067;48.764;9.176;2023-01-01T16:59:29;14.90;82.80
26186;DHT22;20067;48.764;9.176;2023-01-01T17:01:59;14.90;82.90
26186;DHT22;20067;48.764;9.176;2023-01-01T17:04:25;14.90;82.70
26186;DHT22;20067;48.764;9.176;2023-01-01T17:06:53;14.90;82.90
26186;DHT22;20067;48.764;9.176;2023-01-01T17:09:18;14.90;82.80
26186;DHT22;20067;48.764;9.176;2023-01-01T17:11:44;14.80;82.90
26186;DHT22;20067;48.764;9.176;2023-01-01T17:14:10;14.90;82.50
26186;DHT22;20067;48.764;9.176;2023-01-01T17:16:37;14.90;82.40
26186;DHT22;20067;48.764;9.176;2023-01-01T17:19:03;14.80;82.60
26186;DHT22;20067;48.764;9.176;2023-01-01T17:21:29;14.80;82.90
26186;DHT22;20067;48.764;9.176;2023-01-01T17:23:54;14.60;83.50
26186;DHT22;20067;48.764;9.176;2023-01-01T17:26:22;14.60;83.90
26186;DHT22;20067;48.764;9.176;2023-01-01T17:28:49;14.50;84.70
26186;DHT22;20067;48.764;9.176;2023-01-01T17:31:18;14.40;85.10
26186;DHT22;20067;48.764;9.176;2023-01-01T17:33:49;14.20;85.80
26186;DHT22;20067;48.764;9.176;2023-01-01T17:36:15;14.10;86.30
26186;DHT22;20067;48.764;9.176;2023-01-01T17:38:41;14.10;86.30
26186;DHT22;20067;48.764;9.176;2023-01-01T17:41:10;14.00;86.20
26186;DHT22;20067;48.764;9.176;2023-01-01T17:43:39;13.90;86.50
26186;DHT22;20067;48.764;9.176;2023-01-01T17:48:32;13.80;87.30
26186;DHT22;20067;48.764;9.176;2023-01-01T17:50:58;13.70;87.50